Time;durP1;ratioP1;P1;durP2;ratioP2;P2;SDS_P1;SDS_P2;PMS_P1;PMS_P2;Temp;Humidity;BMP_temperature;BMP_pressure;BME280_temperature;BME280_humidity;BME280_pressure;Samples;Min_cycle;Max_cycle;Signal;HPM_P1;HPM_P2
2021/12/19 00:00:46;;;;;;;30.20;11.85;;;;;;;;;;5093302;27;20046;-82
2021/12/19 00:11:01;;;;;;;16.73;8.32;;;;;;;;;;5108369;27;20043;-81
2021/12/19 00:13:28;;;;;;;17.60;8.85;;;;;;;;;;5109397;27;20555;-81
2021/12/19 00:15:56;;;;;;;19.35;8.57;;;;;;;;;;5089673;27;20386;-81
2021/12/19 00:18:22;;;;;;;23.98;9.38;;;;;;;;;;5102892;27;20055;-81
2021/12/19 00:20:48;;;;;;;31.02;10.38;;;;;;;;;;5090190;27;20048;-82
2021/12/19 00:23:15;;;;;;;26.60;10.52;;;;;;;;;;5084069;28;20036;-83
2021/12/19 00:25:42;;;;;;;28.00;10.65;;;;;;;;;;5088578;27;20044;-82
2021/12/19 00:28:08;;;;;;;24.60;10.43;;;;;;;;;;5113939;27;20046;-81
2021/12/19 00:30:34;;;;;;;29.10;11.48;;;;;;;;;;5094997;27;20490;-81
2021/12/19 00:33:01;;;;;;;33.50;12.20;;;;;;;;;;5094755;27;20079;-81
2021/12/19 00:35:27;;;;;;;33.95;11.77;;;;;;;;;;5105775;27;20050;-81
2021/12/19 00:37:53;;;;;;;30.80;10.77;;;;;;;;;;5075521;27;20038;-81
2021/12/19 00:40:20;;;;;;;14.40;5.40;;;;;;;;;;5108870;27;20143;-79
2021/12/19 00:43:03;;;;;;;9.02;3.60;;;;;;;;;;5104173;27;20520;-79
2021/12/19 00:45:34;;;;;;;11.85;3.25;;;;;;;;;;5101128;27;20298;-81
2021/12/19 00:48:01;;;;;;;6.25;2.80;;;;;;;;;;5109863;27;20047;-79
2021/12/19 00:50:28;;;;;;;6.43;2.42;;;;;;;;;;5106645;27;20043;-80
2021/12/19 00:52:54;;;;;;;6.25;2.20;;;;;;;;;;5103922;27;20509;-80
2021/12/19 00:55:21;;;;;;;3.90;1.92;;;;;;;;;;5100673;27;20042;-80
2021/12/19 00:57:48;;;;;;;3.92;2.47;;;;;;;;;;5106387;27;20070;-79
2021/12/19 01:00:15;;;;;;;7.55;2.40;;;;;;;;;;5104391;27;20043;-80
2021/12/19 01:02:41;;;;;;;5.90;2.63;;;;;;;;;;5107323;27;20043;-79
2021/12/19 01:05:08;;;;;;;8.05;2.47;;;;;;;;;;5089361;27;20047;-79
2021/12/19 01:07:34;;;;;;;8.77;2.58;;;;;;;;;;5131056;27;20039;-80
2021/12/19 01:10:01;;;;;;;6.10;2.97;;;;;;;;;;5106200;27;20043;-80
2021/12/19 01:12:27;;;;;;;6.30;2.95;;;;;;;;;;5107246;27;20069;-80
2021/12/19 01:14:54;;;;;;;9.90;2.85;;;;;;;;;;5104557;27;20087;-80
2021/12/19 01:17:20;;;;;;;6.95;2.67;;;;;;;;;;5107241;27;20035;-80
2021/12/19 01:19:46;;;;;;;7.28;2.65;;;;;;;;;;5113395;27;20046;-79
2021/12/19 01:22:12;;;;;;;6.75;2.00;;;;;;;;;;5107368;27;20470;-80
2021/12/19 01:24:39;;;;;;;3.38;1.55;;;;;;;;;;5107916;27;20039;-80
2021/12/19 01:27:08;;;;;;;4.45;1.15;;;;;;;;;;5106779;27;20566;-80
2021/12/19 01:29:34;;;;;;;7.63;1.60;;;;;;;;;;5086790;27;20861;-79
2021/12/19 01:32:01;;;;;;;4.38;1.33;;;;;;;;;;5100860;27;20031;-80
2021/12/19 01:34:27;;;;;;;2.72;1.30;;;;;;;;;;5103285;27;20088;-80
2021/12/19 01:36:53;;;;;;;5.18;1.58;;;;;;;;;;5072821;28;20052;-79
2021/12/19 01:39:19;;;;;;;7.65;1.67;;;;;;;;;;5087324;27;20047;-80
2021/12/19 01:41:50;;;;;;;3.63;1.60;;;;;;;;;;5106927;27;20074;-79
2021/12/19 01:44:16;;;;;;;8.18;2.10;;;;;;;;;;5102688;27;20509;-79
2021/12/19 01:46:44;;;;;;;6.80;1.52;;;;;;;;;;5100861;27;20051;-79
2021/12/19 01:49:10;;;;;;;4.15;1.92;;;;;;;;;;5082763;28;20064;-79
2021/12/19 01:51:37;;;;;;;4.88;2.03;;;;;;;;;;5106498;27;20050;-79
2021/12/19 01:54:03;;;;;;;4.80;1.85;;;;;;;;;;5104039;27;20055;-80
2021/12/19 01:56:29;;;;;;;7.95;1.77;;;;;;;;;;5085099;28;20043;-80
2021/12/19 01:58:56;;;;;;;5.13;2.28;;;;;;;;;;5102136;27;20048;-80
2021/12/19 02:01:22;;;;;;;6.50;1.70;;;;;;;;;;5102996;27;20057;-80
2021/12/19 02:03:48;;;;;;;6.53;1.92;;;;;;;;;;5085978;27;20038;-80
2021/12/19 02:06:14;;;;;;;4.97;2.20;;;;;;;;;;5110637;27;20504;-80
2021/12/19 02:08:41;;;;;;;4.60;2.22;;;;;;;;;;5099996;27;20493;-80
2021/12/19 02:11:07;;;;;;;3.65;2.20;;;;;;;;;;5102652;27;20055;-80
2021/12/19 02:13:33;;;;;;;5.50;2.47;;;;;;;;;;5083254;27;20147;-80
2021/12/19 02:16:00;;;;;;;5.07;2.67;;;;;;;;;;5090507;27;20111;-80
2021/12/19 02:18:26;;;;;;;11.43;2.50;;;;;;;;;;5086724;27;20079;-80
2021/12/19 02:20:54;;;;;;;5.45;2.63;;;;;;;;;;5090536;27;20135;-80
2021/12/19 02:23:21;;;;;;;6.55;2.75;;;;;;;;;;5104844;27;20039;-80
2021/12/19 02:25:47;;;;;;;6.63;2.30;;;;;;;;;;5127022;27;20051;-80
2021/12/19 02:28:13;;;;;;;4.85;2.70;;;;;;;;;;5105092;27;20457;-80
2021/12/19 02:30:39;;;;;;;7.35;1.60;;;;;;;;;;5102695;27;20097;-81
2021/12/19 02:33:09;;;;;;;5.68;1.65;;;;;;;;;;5099865;27;20055;-80
2021/12/19 02:35:36;;;;;;;3.83;1.70;;;;;;;;;;5103082;27;20059;-80
2021/12/19 02:49:04;;;;;;;2.33;0.98;;;;;;;;;;5104491;28;20151;-80
2021/12/19 02:51:34;;;;;;;4.13;1.17;;;;;;;;;;5090316;27;20055;-80
2021/12/19 02:54:00;;;;;;;5.18;0.98;;;;;;;;;;5125422;27;20510;-80
2021/12/19 02:56:27;;;;;;;2.80;0.80;;;;;;;;;;5085152;28;20059;-79
2021/12/19 02:58:53;;;;;;;2.72;1.13;;;;;;;;;;5090120;28;20067;-79
2021/12/19 03:01:20;;;;;;;1.65;1.00;;;;;;;;;;5088585;28;20048;-79
2021/12/19 03:03:47;;;;;;;2.63;1.20;;;;;;;;;;5101879;28;20482;-80
2021/12/19 03:06:13;;;;;;;3.53;1.23;;;;;;;;;;5104020;28;20044;-79
2021/12/19 03:08:45;;;;;;;4.20;1.33;;;;;;;;;;5099276;28;20048;-79
2021/12/19 03:19:41;;;;;;;5.75;1.58;;;;;;;;;;5090239;27;20050;-79
2021/12/19 03:22:07;;;;;;;4.60;1.83;;;;;;;;;;5096218;27;20067;-79
2021/12/19 03:24:34;;;;;;;7.15;1.45;;;;;;;;;;5119982;27;20049;-80
2021/12/19 03:27:00;;;;;;;7.30;1.70;;;;;;;;;;5110603;27;20039;-80
2021/12/19 03:29:26;;;;;;;7.13;1.85;;;;;;;;;;5107460;27;20047;-79
2021/12/19 03:31:52;;;;;;;4.43;1.60;;;;;;;;;;5128001;27;20402;-80
2021/12/19 03:34:18;;;;;;;6.75;1.67;;;;;;;;;;5095524;27;20079;-80
2021/12/19 03:36:45;;;;;;;6.35;1.95;;;;;;;;;;5109581;27;20390;-80
2021/12/19 03:39:25;;;;;;;6.18;1.60;;;;;;;;;;5122301;27;20043;-80
2021/12/19 03:41:54;;;;;;;6.32;2.08;;;;;;;;;;5133222;27;20054;-80
2021/12/19 03:44:20;;;;;;;5.95;2.33;;;;;;;;;;5111990;27;20091;-80
2021/12/19 03:46:46;;;;;;;5.93;2.65;;;;;;;;;;5120929;27;20093;-79
2021/12/19 03:49:16;;;;;;;8.15;2.13;;;;;;;;;;5125533;27;20120;-80
2021/12/19 03:51:42;;;;;;;7.68;2.70;;;;;;;;;;5111153;27;20477;-80
2021/12/19 03:54:08;;;;;;;7.15;2.85;;;;;;;;;;5112784;27;20043;-80
2021/12/19 03:56:34;;;;;;;6.70;2.10;;;;;;;;;;5100433;27;20032;-79
2021/12/19 03:59:01;;;;;;;6.80;2.08;;;;;;;;;;5099809;27;20149;-79
2021/12/19 04:01:27;;;;;;;4.82;2.40;;;;;;;;;;5128002;27;20061;-78
2021/12/19 04:03:53;;;;;;;6.50;2.58;;;;;;;;;;5131163;27;20035;-78
2021/12/19 04:06:19;;;;;;;4.43;2.47;;;;;;;;;;5129598;27;20042;-78
2021/12/19 04:08:46;;;;;;;6.82;2.10;;;;;;;;;;5109369;27;20780;-78
2021/12/19 04:11:12;;;;;;;10.30;1.73;;;;;;;;;;5149710;27;20056;-79
2021/12/19 04:13:38;;;;;;;13.23;2.33;;;;;;;;;;5111176;27;20052;-79
2021/12/19 04:16:04;;;;;;;8.30;2.75;;;;;;;;;;5107083;27;20062;-79
2021/12/19 04:18:30;;;;;;;7.95;2.65;;;;;;;;;;5102185;27;20483;-79
2021/12/19 04:20:56;;;;;;;14.38;3.20;;;;;;;;;;5103027;27;20405;-78
2021/12/19 04:23:22;;;;;;;17.23;4.10;;;;;;;;;;5098255;27;20510;-78
2021/12/19 04:25:50;;;;;;;12.15;4.15;;;;;;;;;;5077731;27;20039;-78
2021/12/19 04:28:16;;;;;;;13.25;3.78;;;;;;;;;;5072822;27;20044;-78
2021/12/19 04:30:42;;;;;;;12.55;4.30;;;;;;;;;;5104828;27;20047;-78
2021/12/19 04:33:11;;;;;;;17.95;4.93;;;;;;;;;;5101228;27;20054;-79
2021/12/19 04:35:39;;;;;;;12.05;5.07;;;;;;;;;;5104782;27;20043;-79
2021/12/19 04:41:41;;;;;;;18.35;5.53;;;;;;;;;;5101971;28;20055;-78
2021/12/19 04:56:47;;;;;;;22.95;6.18;;;;;;;;;;5102613;27;20051;-78
2021/12/19 05:15:32;;;;;;;26.52;7.88;;;;;;;;;;5105952;27;20051;-78
2021/12/19 05:18:02;;;;;;;28.55;8.85;;;;;;;;;;5104550;27;20054;-79
2021/12/19 05:20:29;;;;;;;27.58;8.63;;;;;;;;;;5085640;27;20043;-79
2021/12/19 05:23:08;;;;;;;29.23;10.23;;;;;;;;;;5111725;27;20042;-79
2021/12/19 05:25:34;;;;;;;24.15;9.65;;;;;;;;;;5089269;27;20054;-78
2021/12/19 05:28:00;;;;;;;32.50;11.00;;;;;;;;;;5085070;27;20879;-78
2021/12/19 05:30:26;;;;;;;27.58;11.95;;;;;;;;;;5089116;27;20059;-79
2021/12/19 05:32:54;;;;;;;29.48;12.88;;;;;;;;;;5100505;27;20210;-78
2021/12/19 05:35:28;;;;;;;35.30;14.05;;;;;;;;;;5088484;27;21405;-78
2021/12/19 05:46:08;;;;;;;38.67;14.52;;;;;;;;;;5089748;28;20040;-78
2021/12/19 05:48:34;;;;;;;38.63;13.90;;;;;;;;;;5076890;27;20482;-78
2021/12/19 05:51:01;;;;;;;30.80;13.48;;;;;;;;;;5103483;27;20101;-78
2021/12/19 05:53:27;;;;;;;27.88;11.60;;;;;;;;;;5107579;27;20047;-79
2021/12/19 05:55:53;;;;;;;29.00;11.30;;;;;;;;;;5128603;27;20054;-78
2021/12/19 05:58:19;;;;;;;24.45;10.68;;;;;;;;;;5086316;27;20051;-78
2021/12/19 06:00:46;;;;;;;30.60;9.88;;;;;;;;;;5085634;27;20043;-78
2021/12/19 06:03:12;;;;;;;24.48;8.70;;;;;;;;;;5098702;27;20122;-78
2021/12/19 06:05:38;;;;;;;27.38;8.70;;;;;;;;;;5090582;27;20092;-78
2021/12/19 06:08:04;;;;;;;25.65;9.05;;;;;;;;;;5104382;27;20048;-78
2021/12/19 06:10:30;;;;;;;35.60;8.50;;;;;;;;;;5106256;27;20039;-78
2021/12/19 06:12:57;;;;;;;31.67;8.40;;;;;;;;;;5104203;27;20055;-78
2021/12/19 06:15:24;;;;;;;21.63;8.15;;;;;;;;;;5105506;27;20160;-79
2021/12/19 06:17:52;;;;;;;24.23;7.20;;;;;;;;;;5082176;27;20051;-78
2021/12/19 06:20:18;;;;;;;25.33;7.50;;;;;;;;;;5102050;27;20494;-78
2021/12/19 06:22:44;;;;;;;20.88;7.10;;;;;;;;;;5105801;27;20534;-79
2021/12/19 06:25:10;;;;;;;25.00;7.50;;;;;;;;;;5106007;27;20127;-79
2021/12/19 06:27:36;;;;;;;29.52;8.13;;;;;;;;;;5102430;27;20058;-78
2021/12/19 06:30:03;;;;;;;22.48;8.07;;;;;;;;;;5104734;27;20395;-81
2021/12/19 06:32:29;;;;;;;25.33;7.80;;;;;;;;;;5100993;27;20054;-78
2021/12/19 06:34:58;;;;;;;20.40;7.13;;;;;;;;;;5105854;27;20045;-78
2021/12/19 06:37:24;;;;;;;26.60;6.57;;;;;;;;;;5105482;27;20050;-78
2021/12/19 06:39:50;;;;;;;28.08;7.95;;;;;;;;;;5102937;27;20057;-78
2021/12/19 06:42:17;;;;;;;17.25;6.38;;;;;;;;;;5082585;28;20043;-78
2021/12/19 06:44:43;;;;;;;31.67;7.88;;;;;;;;;;5098465;27;20048;-78
2021/12/19 06:47:09;;;;;;;31.42;7.90;;;;;;;;;;5103725;27;20070;-78
2021/12/19 06:49:35;;;;;;;27.50;7.43;;;;;;;;;;5088841;27;20047;-78
2021/12/19 06:52:01;;;;;;;35.25;7.63;;;;;;;;;;5099716;27;20131;-78
2021/12/19 06:54:27;;;;;;;28.88;7.05;;;;;;;;;;5101677;27;20051;-78
2021/12/19 06:56:53;;;;;;;33.97;8.57;;;;;;;;;;5084277;28;20390;-78
2021/12/19 06:59:19;;;;;;;27.92;6.85;;;;;;;;;;5088168;28;20054;-79
2021/12/19 07:01:46;;;;;;;19.52;5.05;;;;;;;;;;5100852;27;20044;-76
2021/12/19 07:04:12;;;;;;;26.17;6.18;;;;;;;;;;5105853;28;20036;-78
2021/12/19 07:06:38;;;;;;;21.67;4.43;;;;;;;;;;5096247;27;20474;-80
2021/12/19 07:09:04;;;;;;;17.55;4.93;;;;;;;;;;5110986;27;20051;-80
2021/12/19 07:11:30;;;;;;;21.67;5.13;;;;;;;;;;5080222;28;20074;-77
2021/12/19 07:13:56;;;;;;;15.98;4.22;;;;;;;;;;5103359;28;20495;-77
2021/12/19 07:16:22;;;;;;;17.77;4.57;;;;;;;;;;5109090;27;20086;-76
2021/12/19 07:18:48;;;;;;;19.85;4.43;;;;;;;;;;5100446;28;20039;-77
2021/12/19 07:21:14;;;;;;;17.45;5.00;;;;;;;;;;5099288;28;20052;-77
2021/12/19 07:23:40;;;;;;;20.42;5.15;;;;;;;;;;5108351;28;20036;-77
2021/12/19 07:26:07;;;;;;;20.42;4.82;;;;;;;;;;5098346;28;20058;-77
2021/12/19 07:28:33;;;;;;;18.38;5.80;;;;;;;;;;5105612;28;20065;-78
2021/12/19 07:30:59;;;;;;;15.98;4.82;;;;;;;;;;5087782;28;20070;-77
2021/12/19 07:33:25;;;;;;;18.13;5.15;;;;;;;;;;5092802;28;20052;-79
2021/12/19 07:35:52;;;;;;;17.35;4.95;;;;;;;;;;5104188;27;20402;-78
2021/12/19 07:38:28;;;;;;;16.23;4.32;;;;;;;;;;5104116;28;20078;-75
2021/12/19 07:40:56;;;;;;;22.05;6.03;;;;;;;;;;5105081;28;20044;-78
2021/12/19 07:43:22;;;;;;;34.25;17.25;;;;;;;;;;5094063;28;20112;-75
2021/12/19 07:45:48;;;;;;;12.00;4.80;;;;;;;;;;5104233;28;20051;-79
2021/12/19 07:48:14;;;;;;;21.77;5.40;;;;;;;;;;5079961;28;20054;-76
2021/12/19 07:50:40;;;;;;;15.35;4.55;;;;;;;;;;5103482;28;20367;-76
2021/12/19 07:53:08;;;;;;;27.83;5.75;;;;;;;;;;5107435;28;20039;-76
2021/12/19 07:55:34;;;;;;;25.85;5.68;;;;;;;;;;5107581;28;20043;-75
2021/12/19 07:58:00;;;;;;;18.38;5.00;;;;;;;;;;5091145;28;20439;-76
2021/12/19 08:00:27;;;;;;;24.45;4.50;;;;;;;;;;5121813;27;20050;-75
2021/12/19 08:02:53;;;;;;;21.77;4.65;;;;;;;;;;5096772;28;20455;-73
2021/12/19 08:05:21;;;;;;;19.33;4.20;;;;;;;;;;5114404;28;20051;-74
2021/12/19 08:07:49;;;;;;;28.10;4.75;;;;;;;;;;5111156;28;20118;-76
2021/12/19 08:12:45;;;;;;;18.85;4.10;;;;;;;;;;5113348;27;21504;-74
2021/12/19 08:15:12;;;;;;;17.63;3.63;;;;;;;;;;5107994;27;20044;-75
2021/12/19 08:17:38;;;;;;;20.52;4.10;;;;;;;;;;5111007;27;20036;-76
2021/12/19 08:20:06;;;;;;;22.27;4.25;;;;;;;;;;5103182;27;20035;-74
2021/12/19 08:22:33;;;;;;;16.38;3.22;;;;;;;;;;5109674;27;20047;-74
2021/12/19 08:24:59;;;;;;;19.13;3.70;;;;;;;;;;5116922;27;20438;-74
2021/12/19 08:27:26;;;;;;;19.67;3.90;;;;;;;;;;5092268;28;20044;-74
2021/12/19 08:29:54;;;;;;;23.90;4.25;;;;;;;;;;5102523;27;20062;-81
2021/12/19 08:32:21;;;;;;;11.68;3.03;;;;;;;;;;5076426;27;20399;-77
2021/12/19 08:34:47;;;;;;;15.82;4.28;;;;;;;;;;5113456;27;20056;-78
2021/12/19 08:37:15;;;;;;;13.48;2.97;;;;;;;;;;5104498;27;20096;-78
2021/12/19 08:39:41;;;;;;;16.23;3.97;;;;;;;;;;5106128;27;20051;-79
2021/12/19 08:42:09;;;;;;;12.95;3.28;;;;;;;;;;5096000;28;20059;-79
2021/12/19 08:44:35;;;;;;;13.48;2.83;;;;;;;;;;5072721;28;22082;-76
2021/12/19 08:47:01;;;;;;;10.23;3.20;;;;;;;;;;5109802;27;20112;-76
2021/12/19 08:49:27;;;;;;;11.55;2.95;;;;;;;;;;5091005;28;20212;-75
2021/12/19 08:51:54;;;;;;;13.93;3.00;;;;;;;;;;5114224;27;20127;-82
2021/12/19 08:54:22;;;;;;;20.35;3.28;;;;;;;;;;5092621;28;20078;-77
2021/12/19 08:56:49;;;;;;;17.02;3.10;;;;;;;;;;5106439;27;20044;-77
2021/12/19 08:59:15;;;;;;;18.58;3.58;;;;;;;;;;5081995;28;20150;-79
2021/12/19 09:01:41;;;;;;;13.88;3.03;;;;;;;;;;5107933;28;21436;-76
2021/12/19 09:04:07;;;;;;;17.02;4.53;;;;;;;;;;5108503;28;20051;-77
2021/12/19 09:06:34;;;;;;;20.83;4.10;;;;;;;;;;5109606;28;20048;-77
2021/12/19 09:09:01;;;;;;;15.27;3.35;;;;;;;;;;5091428;27;20044;-77
2021/12/19 09:11:28;;;;;;;16.05;3.75;;;;;;;;;;5105403;27;20051;-77
2021/12/19 09:13:54;;;;;;;16.88;3.38;;;;;;;;;;5090292;28;20047;-82
2021/12/19 09:16:20;;;;;;;16.63;3.80;;;;;;;;;;5107200;28;20047;-77
2021/12/19 09:18:46;;;;;;;13.85;3.10;;;;;;;;;;5075903;28;20483;-78
2021/12/19 09:21:12;;;;;;;13.55;3.30;;;;;;;;;;5107402;28;20059;-76
2021/12/19 09:23:38;;;;;;;18.15;3.53;;;;;;;;;;5090421;28;20096;-77
2021/12/19 09:26:05;;;;;;;19.13;3.17;;;;;;;;;;5108394;28;20051;-80
2021/12/19 09:28:31;;;;;;;30.42;3.50;;;;;;;;;;5090855;28;20047;-77
2021/12/19 09:30:57;;;;;;;20.48;3.78;;;;;;;;;;5107813;28;20039;-77
2021/12/19 09:33:23;;;;;;;14.70;3.22;;;;;;;;;;5105043;28;20482;-77
2021/12/19 09:35:49;;;;;;;14.23;3.20;;;;;;;;;;5107884;27;20039;-77
2021/12/19 09:38:15;;;;;;;15.80;3.22;;;;;;;;;;5108799;28;20770;-77
2021/12/19 09:40:43;;;;;;;12.82;3.20;;;;;;;;;;5107878;28;20071;-77
2021/12/19 09:43:11;;;;;;;20.08;3.60;;;;;;;;;;5090890;27;20043;-76
2021/12/19 09:45:37;;;;;;;15.90;3.75;;;;;;;;;;5105420;28;20520;-77
2021/12/19 09:48:04;;;;;;;18.25;3.67;;;;;;;;;;5107216;27;20071;-77
2021/12/19 09:50:30;;;;;;;17.77;3.80;;;;;;;;;;5087997;28;20461;-76
2021/12/19 09:52:56;;;;;;;22.38;3.88;;;;;;;;;;5104525;28;20052;-76
2021/12/19 09:55:22;;;;;;;20.23;5.05;;;;;;;;;;5105771;28;20130;-78
2021/12/19 09:57:49;;;;;;;18.35;4.43;;;;;;;;;;5107784;28;20036;-76
2021/12/19 10:00:16;;;;;;;26.17;4.60;;;;;;;;;;5109489;28;20051;-77
2021/12/19 10:02:42;;;;;;;23.73;4.80;;;;;;;;;;5108603;28;20088;-77
2021/12/19 10:05:20;;;;;;;25.05;4.60;;;;;;;;;;5108020;28;20079;-77
2021/12/19 10:07:47;;;;;;;32.00;5.13;;;;;;;;;;5091462;28;20410;-77
2021/12/19 10:10:23;;;;;;;22.17;5.10;;;;;;;;;;5091665;28;20058;-77
2021/12/19 10:12:52;;;;;;;26.05;4.55;;;;;;;;;;5091612;28;20043;-77
2021/12/19 10:15:22;;;;;;;14.40;3.75;;;;;;;;;;5104355;28;20134;-78
2021/12/19 10:17:58;;;;;;;22.73;4.32;;;;;;;;;;5088569;28;20119;-77
2021/12/19 10:20:24;;;;;;;26.08;4.75;;;;;;;;;;5106143;28;20066;-77
2021/12/19 10:22:50;;;;;;;23.35;4.15;;;;;;;;;;5107161;28;20078;-77
2021/12/19 10:25:21;;;;;;;24.48;4.85;;;;;;;;;;5089974;28;20066;-76
2021/12/19 10:27:47;;;;;;;24.10;4.70;;;;;;;;;;5091959;28;20055;-77
2021/12/19 10:30:19;;;;;;;21.65;4.50;;;;;;;;;;5105516;28;20140;-79
2021/12/19 10:33:11;;;;;;;21.42;4.97;;;;;;;;;;5139652;27;20050;-76
2021/12/19 10:35:54;;;;;;;22.77;4.60;;;;;;;;;;5103353;28;20048;-76
2021/12/19 10:38:22;;;;;;;26.83;4.32;;;;;;;;;;5091639;28;20672;-79
2021/12/19 10:40:50;;;;;;;28.75;4.13;;;;;;;;;;5104445;28;20487;-77
2021/12/19 10:43:17;;;;;;;18.80;3.97;;;;;;;;;;5106273;28;20051;-77
2021/12/19 10:45:43;;;;;;;23.20;5.10;;;;;;;;;;5104958;28;20471;-77
2021/12/19 10:48:21;;;;;;;21.65;4.82;;;;;;;;;;5107047;28;20055;-77
2021/12/19 10:50:47;;;;;;;25.13;3.90;;;;;;;;;;5107788;28;20096;-77
2021/12/19 10:53:15;;;;;;;29.58;5.13;;;;;;;;;;5106621;28;20050;-78
2021/12/19 10:55:41;;;;;;;23.55;5.55;;;;;;;;;;5086835;28;20070;-77
2021/12/19 10:58:24;;;;;;;23.08;5.00;;;;;;;;;;5088012;28;20043;-77
2021/12/19 11:01:03;;;;;;;25.98;5.07;;;;;;;;;;5119810;27;20047;-77
2021/12/19 11:03:36;;;;;;;23.88;4.38;;;;;;;;;;5108034;28;20047;-76
2021/12/19 11:06:02;;;;;;;24.83;3.95;;;;;;;;;;5107755;28;20051;-77
2021/12/19 11:08:31;;;;;;;22.25;5.07;;;;;;;;;;5107857;28;20521;-76
2021/12/19 11:10:57;;;;;;;24.25;4.18;;;;;;;;;;5088099;28;20104;-77
2021/12/19 11:13:24;;;;;;;25.67;4.60;;;;;;;;;;5111259;28;20051;-76
2021/12/19 11:15:50;;;;;;;22.45;3.40;;;;;;;;;;5123952;28;20047;-77
2021/12/19 11:18:16;;;;;;;19.40;3.63;;;;;;;;;;5106575;28;20046;-77
2021/12/19 11:20:43;;;;;;;22.23;3.47;;;;;;;;;;5120788;28;20043;-80
2021/12/19 11:23:09;;;;;;;17.23;2.97;;;;;;;;;;5118862;28;20038;-78
2021/12/19 11:25:36;;;;;;;16.15;3.05;;;;;;;;;;5099267;28;20127;-80
2021/12/19 11:28:03;;;;;;;17.85;3.38;;;;;;;;;;5119065;28;20125;-79
2021/12/19 11:30:29;;;;;;;19.92;2.90;;;;;;;;;;5102484;28;20043;-77
2021/12/19 11:33:24;;;;;;;21.63;3.70;;;;;;;;;;5105387;28;20047;-78
2021/12/19 11:35:54;;;;;;;22.02;3.28;;;;;;;;;;5072049;28;20407;-78
2021/12/19 11:38:21;;;;;;;19.38;3.00;;;;;;;;;;5116098;28;20122;-77
2021/12/19 11:40:47;;;;;;;26.48;3.92;;;;;;;;;;5114218;28;20035;-76
2021/12/19 11:43:14;;;;;;;23.95;3.45;;;;;;;;;;5115743;28;20144;-76
2021/12/19 11:45:46;;;;;;;22.30;4.47;;;;;;;;;;5113945;28;20047;-76
2021/12/19 11:48:18;;;;;;;27.00;4.70;;;;;;;;;;5093132;28;20120;-77
2021/12/19 11:50:54;;;;;;;25.35;4.00;;;;;;;;;;5101477;28;20168;-79
2021/12/19 11:53:22;;;;;;;17.20;3.70;;;;;;;;;;5108809;27;20047;-76
2021/12/19 11:55:50;;;;;;;23.23;3.88;;;;;;;;;;5130083;27;20043;-77
2021/12/19 11:58:18;;;;;;;20.23;3.42;;;;;;;;;;5126056;27;20047;-76
2021/12/19 12:00:44;;;;;;;24.73;4.15;;;;;;;;;;5109487;27;20538;-76
2021/12/19 12:03:13;;;;;;;30.15;3.90;;;;;;;;;;5114358;27;20046;-80
2021/12/19 12:05:43;;;;;;;24.17;4.60;;;;;;;;;;5112744;27;20051;-76
2021/12/19 12:08:10;;;;;;;17.98;3.30;;;;;;;;;;5126563;27;20046;-77
2021/12/19 12:10:53;;;;;;;23.25;3.42;;;;;;;;;;5126011;27;20502;-75
2021/12/19 12:13:22;;;;;;;26.45;5.72;;;;;;;;;;5114105;27;20063;-76
2021/12/19 12:15:53;;;;;;;25.08;4.80;;;;;;;;;;5109737;28;20051;-77
2021/12/19 12:18:39;;;;;;;24.08;4.07;;;;;;;;;;5107255;28;20127;-77
2021/12/19 12:24:02;;;;;;;27.45;3.97;;;;;;;;;;5109021;28;20441;-77
2021/12/19 12:26:37;;;;;;;33.38;5.25;;;;;;;;;;5111015;27;20048;-76
2021/12/19 12:29:03;;;;;;;22.52;4.47;;;;;;;;;;5097351;28;20047;-76
2021/12/19 12:31:29;;;;;;;22.70;4.20;;;;;;;;;;5107368;28;20036;-76
2021/12/19 12:33:56;;;;;;;21.77;3.42;;;;;;;;;;5104956;28;20124;-76
2021/12/19 12:36:22;;;;;;;26.42;4.10;;;;;;;;;;5097477;27;20085;-77
2021/12/19 12:38:51;;;;;;;28.90;4.10;;;;;;;;;;5108380;28;20039;-79
2021/12/19 12:44:05;;;;;;;26.63;3.90;;;;;;;;;;5109832;28;20501;-76
2021/12/19 12:46:31;;;;;;;21.52;3.83;;;;;;;;;;5109672;27;20440;-76
2021/12/19 12:49:00;;;;;;;27.55;4.20;;;;;;;;;;5109989;27;20112;-79
2021/12/19 12:51:40;;;;;;;25.65;4.63;;;;;;;;;;5109668;28;20044;-80
2021/12/19 12:54:13;;;;;;;33.30;4.88;;;;;;;;;;5126835;27;20051;-78
2021/12/19 12:56:47;;;;;;;26.45;5.18;;;;;;;;;;5110969;28;20060;-78
2021/12/19 12:59:14;;;;;;;21.20;4.05;;;;;;;;;;5108401;28;20119;-79
2021/12/19 13:01:49;;;;;;;33.95;4.60;;;;;;;;;;5110535;27;20054;-76
2021/12/19 13:04:21;;;;;;;25.95;4.05;;;;;;;;;;5107291;28;20052;-79
2021/12/19 13:06:53;;;;;;;30.60;4.65;;;;;;;;;;5092704;28;20465;-78
2021/12/19 13:09:25;;;;;;;26.65;3.67;;;;;;;;;;5110533;28;20421;-76
2021/12/19 13:11:53;;;;;;;34.33;5.13;;;;;;;;;;5108464;27;20050;-76
2021/12/19 13:14:21;;;;;;;26.65;4.30;;;;;;;;;;5115870;27;20047;-77
2021/12/19 13:16:50;;;;;;;26.05;5.57;;;;;;;;;;5115640;27;20092;-77
2021/12/19 13:19:36;;;;;;;32.15;4.32;;;;;;;;;;5109090;27;20100;-76
2021/12/19 13:22:02;;;;;;;20.80;3.67;;;;;;;;;;5119187;27;20489;-77
2021/12/19 13:24:30;;;;;;;27.40;4.10;;;;;;;;;;5118222;27;20070;-77
2021/12/19 13:27:23;;;;;;;29.02;3.58;;;;;;;;;;5126116;27;20443;-76
2021/12/19 13:30:04;;;;;;;26.65;4.80;;;;;;;;;;5118984;27;20402;-76
2021/12/19 13:32:32;;;;;;;27.08;3.80;;;;;;;;;;5120490;27;20043;-76
2021/12/19 13:34:58;;;;;;;28.77;4.80;;;;;;;;;;5129090;27;20187;-76
2021/12/19 13:37:25;;;;;;;23.05;4.25;;;;;;;;;;5101160;27;20156;-76
2021/12/19 13:39:58;;;;;;;21.60;4.20;;;;;;;;;;5121129;27;20120;-77
2021/12/19 13:42:36;;;;;;;20.23;3.05;;;;;;;;;;5106846;27;20039;-76
2021/12/19 13:45:03;;;;;;;30.48;3.97;;;;;;;;;;5128684;27;20098;-77
2021/12/19 13:47:29;;;;;;;23.15;3.45;;;;;;;;;;5128499;27;20046;-77
2021/12/19 13:49:56;;;;;;;20.35;3.47;;;;;;;;;;5102228;27;20060;-77
2021/12/19 13:52:22;;;;;;;21.65;3.63;;;;;;;;;;5121484;27;20131;-77
2021/12/19 13:54:49;;;;;;;20.67;3.55;;;;;;;;;;5101660;27;20039;-76
2021/12/19 13:57:19;;;;;;;22.52;2.95;;;;;;;;;;5101774;27;20051;-76
2021/12/19 13:59:45;;;;;;;24.33;3.00;;;;;;;;;;5122291;27;20051;-77
2021/12/19 14:02:12;;;;;;;15.57;2.58;;;;;;;;;;5121355;27;20429;-77
2021/12/19 14:04:38;;;;;;;13.65;2.30;;;;;;;;;;5113543;27;20047;-77
2021/12/19 14:07:10;;;;;;;13.07;2.00;;;;;;;;;;5120839;27;20468;-78
2021/12/19 14:09:45;;;;;;;11.50;1.80;;;;;;;;;;5124304;27;20379;-77
2021/12/19 14:12:25;;;;;;;11.48;2.22;;;;;;;;;;5100331;27;20155;-76
2021/12/19 14:14:51;;;;;;;16.30;1.90;;;;;;;;;;5114603;27;20043;-77
2021/12/19 14:17:17;;;;;;;10.50;2.58;;;;;;;;;;5113519;27;20099;-76
2021/12/19 14:19:47;;;;;;;10.60;1.67;;;;;;;;;;5113186;27;20091;-76
2021/12/19 14:22:16;;;;;;;6.88;1.00;;;;;;;;;;5126581;27;20047;-77
2021/12/19 14:24:42;;;;;;;7.15;0.90;;;;;;;;;;5107483;27;20486;-77
2021/12/19 14:27:12;;;;;;;5.15;1.20;;;;;;;;;;5129870;27;20078;-77
2021/12/19 14:29:41;;;;;;;3.45;1.05;;;;;;;;;;5123524;27;20043;-77
2021/12/19 14:32:10;;;;;;;8.18;1.25;;;;;;;;;;5124963;27;20046;-77
2021/12/19 14:34:36;;;;;;;10.15;1.90;;;;;;;;;;5111164;27;20173;-77
2021/12/19 14:37:18;;;;;;;6.05;1.00;;;;;;;;;;5128124;27;20080;-77
2021/12/19 14:39:56;;;;;;;11.80;1.45;;;;;;;;;;5129319;27;20486;-77
2021/12/19 14:42:28;;;;;;;10.43;1.60;;;;;;;;;;5129737;27;20038;-77
2021/12/19 14:44:58;;;;;;;9.02;1.27;;;;;;;;;;5113450;27;20042;-77
2021/12/19 14:47:36;;;;;;;20.50;2.63;;;;;;;;;;5129563;27;20435;-77
2021/12/19 14:50:09;;;;;;;12.15;1.85;;;;;;;;;;5114948;27;20129;-77
2021/12/19 14:52:35;;;;;;;12.15;1.48;;;;;;;;;;5111391;27;20482;-77
2021/12/19 14:55:09;;;;;;;14.00;3.45;;;;;;;;;;5111150;27;20038;-77
2021/12/19 14:57:35;;;;;;;22.42;4.63;;;;;;;;;;5141660;27;20542;-77
2021/12/19 15:00:01;;;;;;;25.52;12.85;;;;;;;;;;5115336;27;20081;-77
2021/12/19 15:02:28;;;;;;;23.52;7.50;;;;;;;;;;5113265;27;20125;-77
2021/12/19 15:04:55;;;;;;;27.67;10.75;;;;;;;;;;5143790;27;20069;-77
2021/12/19 15:07:25;;;;;;;15.60;4.18;;;;;;;;;;5099787;27;20140;-77
2021/12/19 15:09:51;;;;;;;52.80;28.35;;;;;;;;;;5126941;27;20039;-77
2021/12/19 15:12:17;;;;;;;18.52;8.43;;;;;;;;;;5096733;27;20548;-77
2021/12/19 15:14:43;;;;;;;15.27;2.20;;;;;;;;;;5114533;27;20061;-77
2021/12/19 15:17:09;;;;;;;18.27;1.85;;;;;;;;;;5132335;27;20053;-77
2021/12/19 15:19:35;;;;;;;17.65;1.75;;;;;;;;;;5134841;27;20035;-77
2021/12/19 15:22:01;;;;;;;16.52;2.80;;;;;;;;;;5128823;27;20043;-77
2021/12/19 15:24:27;;;;;;;15.07;1.77;;;;;;;;;;5131398;27;20042;-78
2021/12/19 15:26:53;;;;;;;18.92;3.05;;;;;;;;;;5131656;27;20039;-78
2021/12/19 15:29:20;;;;;;;13.75;2.20;;;;;;;;;;5130368;27;20039;-77
2021/12/19 15:31:46;;;;;;;17.50;2.60;;;;;;;;;;5168413;27;20440;-78
2021/12/19 15:34:12;;;;;;;11.93;1.77;;;;;;;;;;5136634;27;20057;-78
2021/12/19 15:36:39;;;;;;;16.77;2.30;;;;;;;;;;5119184;27;20473;-78
2021/12/19 15:39:08;;;;;;;13.38;2.17;;;;;;;;;;5134342;27;20129;-78
2021/12/19 15:41:34;;;;;;;14.60;1.63;;;;;;;;;;5117444;27;20553;-78
2021/12/19 15:44:00;;;;;;;18.83;2.28;;;;;;;;;;5133401;27;20035;-78
2021/12/19 15:46:26;;;;;;;14.52;1.90;;;;;;;;;;5132573;27;20055;-77
2021/12/19 15:48:53;;;;;;;17.08;2.10;;;;;;;;;;5119544;27;20045;-77
2021/12/19 15:51:19;;;;;;;13.77;2.28;;;;;;;;;;5116855;27;20043;-77